sensor_id;sensor_type;location;lat;lon;timestamp;pressure;altitude;pressure_sealevel;temperature;humidity
70374;BME280;57792;49.198;7.890;2022-09-03T00:01:11;98318.69;;;17.71;45.70
70374;BME280;57792;49.198;7.890;2022-09-03T00:02:37;98333.88;;;17.72;44.97
70374;BME280;57792;49.198;7.890;2022-09-03T00:03:56;98322.94;;;17.63;45.86
70374;BME280;57792;49.198;7.890;2022-09-03T00:06:38;98320.63;;;17.69;45.57
70374;BME280;57792;49.198;7.890;2022-09-03T00:09:04;98324.94;;;17.72;45.92
70374;BME280;57792;49.198;7.890;2022-09-03T00:10:11;98316.84;;;17.72;44.99
70374;BME280;57792;49.198;7.890;2022-09-03T00:12:23;98324.44;;;17.67;45.61
70374;BME280;57792;49.198;7.890;2022-09-03T00:13:32;98336.94;;;17.20;46.90
70374;BME280;57792;49.198;7.890;2022-09-03T00:14:41;98331.22;;;17.49;45.63
70374;BME280;57792;49.198;7.890;2022-09-03T00:15:43;98320.44;;;17.49;45.08
70374;BME280;57792;49.198;7.890;2022-09-03T00:16:54;98330.84;;;17.53;45.75
70374;BME280;57792;49.198;7.890;2022-09-03T00:18:06;98324.38;;;17.56;45.96
70374;BME280;57792;49.198;7.890;2022-09-03T00:19:08;98324.50;;;17.54;45.88
70374;BME280;57792;49.198;7.890;2022-09-03T00:20:16;98321.81;;;17.54;45.93
70374;BME280;57792;49.198;7.890;2022-09-03T00:21:54;98329.47;;;17.48;46.43
70374;BME280;57792;49.198;7.890;2022-09-03T00:22:59;98330.56;;;17.45;45.38
70374;BME280;57792;49.198;7.890;2022-09-03T00:24:02;98320.09;;;17.53;44.95
70374;BME280;57792;49.198;7.890;2022-09-03T00:25:06;98328.91;;;17.55;45.04
70374;BME280;57792;49.198;7.890;2022-09-03T00:27:31;98339.84;;;16.93;49.50
70374;BME280;57792;49.198;7.890;2022-09-03T00:28:37;98339.34;;;17.12;48.52
70374;BME280;57792;49.198;7.890;2022-09-03T00:29:45;98336.19;;;17.18;48.44
70374;BME280;57792;49.198;7.890;2022-09-03T00:30:52;98335.59;;;17.26;47.71
70374;BME280;57792;49.198;7.890;2022-09-03T00:32:00;98336.69;;;17.23;48.42
70374;BME280;57792;49.198;7.890;2022-09-03T00:33:06;98324.94;;;17.24;48.26
70374;BME280;57792;49.198;7.890;2022-09-03T00:34:15;98325.19;;;17.21;49.13
70374;BME280;57792;49.198;7.890;2022-09-03T00:35:26;98329.50;;;16.87;49.72
70374;BME280;57792;49.198;7.890;2022-09-03T00:36:40;98328.84;;;16.96;49.47
70374;BME280;57792;49.198;7.890;2022-09-03T00:37:41;98324.66;;;16.92;49.39
70374;BME280;57792;49.198;7.890;2022-09-03T00:38:42;98326.03;;;16.98;48.45
70374;BME280;57792;49.198;7.890;2022-09-03T00:39:43;98321.81;;;17.06;48.72
70374;BME280;57792;49.198;7.890;2022-09-03T00:41:21;98324.75;;;16.91;50.19
70374;BME280;57792;49.198;7.890;2022-09-03T00:51:02;98329.47;;;16.51;51.07
70374;BME280;57792;49.198;7.890;2022-09-03T00:56:30;98336.34;;;16.55;51.78
70374;BME280;57792;49.198;7.890;2022-09-03T00:59:33;98346.38;;;16.65;51.20
70374;BME280;57792;49.198;7.890;2022-09-03T01:00:39;98343.91;;;16.62;50.83
70374;BME280;57792;49.198;7.890;2022-09-03T01:01:50;98346.78;;;16.59;51.04
70374;BME280;57792;49.198;7.890;2022-09-03T01:06:48;98325.69;;;16.53;51.26
70374;BME280;57792;49.198;7.890;2022-09-03T01:09:49;98342.28;;;16.47;52.03
70374;BME280;57792;49.198;7.890;2022-09-03T01:11:16;98338.63;;;16.35;52.33
70374;BME280;57792;49.198;7.890;2022-09-03T01:14:02;98335.19;;;16.46;50.43
70374;BME280;57792;49.198;7.890;2022-09-03T01:16:31;98331.00;;;16.42;51.05
70374;BME280;57792;49.198;7.890;2022-09-03T01:17:49;98341.56;;;16.07;52.48
70374;BME280;57792;49.198;7.890;2022-09-03T01:19:24;98334.34;;;15.95;52.93
70374;BME280;57792;49.198;7.890;2022-09-03T01:20:38;98337.38;;;16.16;50.87
70374;BME280;57792;49.198;7.890;2022-09-03T01:21:52;98334.97;;;16.24;51.20
70374;BME280;57792;49.198;7.890;2022-09-03T01:28:31;98335.84;;;16.11;52.98
70374;BME280;57792;49.198;7.890;2022-09-03T01:29:52;98345.63;;;16.00;53.39
70374;BME280;57792;49.198;7.890;2022-09-03T01:31:18;98334.00;;;15.99;52.91
70374;BME280;57792;49.198;7.890;2022-09-03T01:32:30;98337.22;;;15.92;53.17
70374;BME280;57792;49.198;7.890;2022-09-03T01:33:37;98338.50;;;15.73;53.68
70374;BME280;57792;49.198;7.890;2022-09-03T01:34:51;98335.75;;;15.61;53.74
70374;BME280;57792;49.198;7.890;2022-09-03T01:38:45;98343.34;;;15.68;53.49
70374;BME280;57792;49.198;7.890;2022-09-03T01:40:11;98340.44;;;15.71;53.79
70374;BME280;57792;49.198;7.890;2022-09-03T01:45:55;98350.38;;;15.84;53.89
70374;BME280;57792;49.198;7.890;2022-09-03T01:48:39;98349.19;;;15.61;54.92
70374;BME280;57792;49.198;7.890;2022-09-03T01:50:12;98347.91;;;15.54;54.76
70374;BME280;57792;49.198;7.890;2022-09-03T01:51:23;98352.91;;;15.72;53.71
70374;BME280;57792;49.198;7.890;2022-09-03T01:55:24;98347.75;;;15.69;53.86
70374;BME280;57792;49.198;7.890;2022-09-03T01:58:22;98352.50;;;15.78;54.30
70374;BME280;57792;49.198;7.890;2022-09-03T01:59:32;98355.94;;;15.81;53.08
70374;BME280;57792;49.198;7.890;2022-09-03T02:00:36;98349.59;;;15.82;53.91
70374;BME280;57792;49.198;7.890;2022-09-03T02:01:43;98347.88;;;15.81;53.98
70374;BME280;57792;49.198;7.890;2022-09-03T02:02:50;98353.66;;;15.87;53.71
70374;BME280;57792;49.198;7.890;2022-09-03T02:03:51;98357.56;;;15.83;53.22
70374;BME280;57792;49.198;7.890;2022-09-03T02:05:03;98354.53;;;15.75;53.89
70374;BME280;57792;49.198;7.890;2022-09-03T02:06:11;98357.03;;;15.78;54.13
70374;BME280;57792;49.198;7.890;2022-09-03T02:07:11;98347.88;;;15.81;53.02
70374;BME280;57792;49.198;7.890;2022-09-03T02:08:11;98346.81;;;15.83;53.21
70374;BME280;57792;49.198;7.890;2022-09-03T02:09:12;98346.72;;;15.85;53.30
70374;BME280;57792;49.198;7.890;2022-09-03T02:10:16;98351.63;;;15.91;52.78
70374;BME280;57792;49.198;7.890;2022-09-03T02:11:17;98347.56;;;15.85;52.81
70374;BME280;57792;49.198;7.890;2022-09-03T02:12:17;98346.16;;;15.79;52.80
70374;BME280;57792;49.198;7.890;2022-09-03T02:13:23;98353.16;;;15.82;52.84
70374;BME280;57792;49.198;7.890;2022-09-03T02:14:26;98353.25;;;15.81;52.98
70374;BME280;57792;49.198;7.890;2022-09-03T02:15:28;98349.50;;;15.56;53.76
70374;BME280;57792;49.198;7.890;2022-09-03T02:16:32;98345.94;;;15.43;54.90
70374;BME280;57792;49.198;7.890;2022-09-03T02:17:34;98355.53;;;15.47;54.19
70374;BME280;57792;49.198;7.890;2022-09-03T02:18:39;98350.91;;;15.62;53.76
70374;BME280;57792;49.198;7.890;2022-09-03T02:19:41;98344.09;;;15.70;53.33
70374;BME280;57792;49.198;7.890;2022-09-03T02:20:41;98341.97;;;15.75;53.70
70374;BME280;57792;49.198;7.890;2022-09-03T02:21:49;98342.38;;;15.69;54.39
70374;BME280;57792;49.198;7.890;2022-09-03T02:22:51;98340.13;;;15.76;53.35
70374;BME280;57792;49.198;7.890;2022-09-03T02:23:53;98335.63;;;15.76;53.33
70374;BME280;57792;49.198;7.890;2022-09-03T02:24:53;98334.84;;;15.74;53.53
70374;BME280;57792;49.198;7.890;2022-09-03T02:25:56;98346.13;;;15.67;53.76
70374;BME280;57792;49.198;7.890;2022-09-03T02:26:57;98347.53;;;15.72;53.31
70374;BME280;57792;49.198;7.890;2022-09-03T02:27:58;98348.28;;;15.74;53.79
70374;BME280;57792;49.198;7.890;2022-09-03T02:29:00;98340.03;;;15.77;54.04
70374;BME280;57792;49.198;7.890;2022-09-03T02:30:01;98336.59;;;15.75;53.42
70374;BME280;57792;49.198;7.890;2022-09-03T02:31:03;98337.13;;;15.81;53.46
70374;BME280;57792;49.198;7.890;2022-09-03T02:32:03;98337.53;;;15.74;53.42
70374;BME280;57792;49.198;7.890;2022-09-03T02:33:04;98337.66;;;15.73;53.37
70374;BME280;57792;49.198;7.890;2022-09-03T02:34:04;98328.19;;;15.67;53.60
70374;BME280;57792;49.198;7.890;2022-09-03T02:35:05;98336.03;;;15.70;53.57
70374;BME280;57792;49.198;7.890;2022-09-03T02:36:09;98335.06;;;15.71;53.51
70374;BME280;57792;49.198;7.890;2022-09-03T02:37:13;98334.75;;;15.76;53.40
70374;BME280;57792;49.198;7.890;2022-09-03T02:38:22;98329.38;;;15.76;54.15
70374;BME280;57792;49.198;7.890;2022-09-03T02:39:24;98328.53;;;15.75;53.63
70374;BME280;57792;49.198;7.890;2022-09-03T02:40:27;98323.88;;;15.65;54.55
70374;BME280;57792;49.198;7.890;2022-09-03T02:41:28;98330.38;;;15.61;54.51
70374;BME280;57792;49.198;7.890;2022-09-03T02:42:28;98324.91;;;15.62;54.21
70374;BME280;57792;49.198;7.890;2022-09-03T02:44:01;98321.25;;;15.51;55.49
70374;BME280;57792;49.198;7.890;2022-09-03T02:45:15;98320.69;;;15.45;55.33
70374;BME280;57792;49.198;7.890;2022-09-03T02:46:24;98332.50;;;15.43;55.72
70374;BME280;57792;49.198;7.890;2022-09-03T02:47:30;98324.19;;;15.33;56.24
70374;BME280;57792;49.198;7.890;2022-09-03T02:48:32;98329.19;;;15.12;56.73
70374;BME280;57792;49.198;7.890;2022-09-03T02:49:33;98325.56;;;15.26;55.37
70374;BME280;57792;49.198;7.890;2022-09-03T02:50:39;98335.81;;;15.34;56.60
70374;BME280;57792;49.198;7.890;2022-09-03T02:51:42;98339.16;;;15.37;55.87
70374;BME280;57792;49.198;7.890;2022-09-03T02:52:43;98344.56;;;15.23;56.93
70374;BME280;57792;49.198;7.890;2022-09-03T02:53:43;98343.00;;;15.06;57.56
70374;BME280;57792;49.198;7.890;2022-09-03T02:54:44;98347.78;;;14.89;58.24
70374;BME280;57792;49.198;7.890;2022-09-03T02:55:45;98344.53;;;15.10;56.28
70374;BME280;57792;49.198;7.890;2022-09-03T02:56:45;98349.31;;;15.20;56.38
70374;BME280;57792;49.198;7.890;2022-09-03T02:57:48;98345.78;;;15.32;56.06
70374;BME280;57792;49.198;7.890;2022-09-03T02:58:49;98346.03;;;15.41;55.63
70374;BME280;57792;49.198;7.890;2022-09-03T02:59:49;98341.97;;;15.49;55.47
70374;BME280;57792;49.198;7.890;2022-09-03T03:00:49;98328.44;;;15.50;55.79
70374;BME280;57792;49.198;7.890;2022-09-03T03:01:50;98341.13;;;15.48;55.83
70374;BME280;57792;49.198;7.890;2022-09-03T03:02:51;98348.06;;;15.38;56.44
70374;BME280;57792;49.198;7.890;2022-09-03T03:03:51;98349.28;;;15.46;55.84
70374;BME280;57792;49.198;7.890;2022-09-03T03:04:52;98340.91;;;15.51;55.86
70374;BME280;57792;49.198;7.890;2022-09-03T03:05:56;98343.72;;;15.50;56.04
70374;BME280;57792;49.198;7.890;2022-09-03T03:06:58;98339.72;;;15.55;55.31
70374;BME280;57792;49.198;7.890;2022-09-03T03:07:58;98343.06;;;15.59;55.03
70374;BME280;57792;49.198;7.890;2022-09-03T03:09:00;98343.53;;;15.65;55.00
70374;BME280;57792;49.198;7.890;2022-09-03T03:10:03;98343.47;;;15.40;56.54
70374;BME280;57792;49.198;7.890;2022-09-03T03:11:04;98342.91;;;15.35;56.06
70374;BME280;57792;49.198;7.890;2022-09-03T03:12:04;98342.19;;;15.45;55.50
70374;BME280;57792;49.198;7.890;2022-09-03T03:13:05;98337.88;;;15.43;55.33
70374;BME280;57792;49.198;7.890;2022-09-03T03:14:05;98343.66;;;15.37;55.70
70374;BME280;57792;49.198;7.890;2022-09-03T03:15:06;98338.22;;;15.51;55.29
70374;BME280;57792;49.198;7.890;2022-09-03T03:16:06;98335.97;;;15.58;55.37
70374;BME280;57792;49.198;7.890;2022-09-03T03:17:06;98335.75;;;15.61;55.08
70374;BME280;57792;49.198;7.890;2022-09-03T03:18:07;98338.44;;;15.61;55.61
70374;BME280;57792;49.198;7.890;2022-09-03T03:19:11;98338.34;;;15.62;55.28
70374;BME280;57792;49.198;7.890;2022-09-03T03:20:11;98334.69;;;15.63;55.89
70374;BME280;57792;49.198;7.890;2022-09-03T03:21:14;98342.47;;;15.68;55.93
70374;BME280;57792;49.198;7.890;2022-09-03T03:22:15;98338.06;;;15.67;55.45
70374;BME280;57792;49.198;7.890;2022-09-03T03:23:15;98342.56;;;15.66;55.46
70374;BME280;57792;49.198;7.890;2022-09-03T03:24:16;98341.72;;;15.66;54.91
70374;BME280;57792;49.198;7.890;2022-09-03T03:25:16;98335.75;;;15.61;55.30
70374;BME280;57792;49.198;7.890;2022-09-03T03:26:19;98336.72;;;15.60;55.13
70374;BME280;57792;49.198;7.890;2022-09-03T03:27:19;98337.69;;;15.59;54.85
70374;BME280;57792;49.198;7.890;2022-09-03T03:28:20;98339.50;;;15.58;55.35
70374;BME280;57792;49.198;7.890;2022-09-03T03:29:21;98327.38;;;15.53;55.37
70374;BME280;57792;49.198;7.890;2022-09-03T03:30:21;98336.50;;;15.63;55.00
70374;BME280;57792;49.198;7.890;2022-09-03T03:31:23;98332.41;;;15.57;55.05
70374;BME280;57792;49.198;7.890;2022-09-03T03:32:23;98342.94;;;15.48;56.14
70374;BME280;57792;49.198;7.890;2022-09-03T03:33:24;98340.97;;;15.37;56.24
70374;BME280;57792;49.198;7.890;2022-09-03T03:34:24;98335.28;;;15.41;55.83
70374;BME280;57792;49.198;7.890;2022-09-03T03:35:24;98344.97;;;15.44;55.74
70374;BME280;57792;49.198;7.890;2022-09-03T03:36:27;98335.28;;;15.41;55.92
70374;BME280;57792;49.198;7.890;2022-09-03T03:37:29;98346.69;;;15.45;55.67
70374;BME280;57792;49.198;7.890;2022-09-03T03:38:29;98340.22;;;15.35;56.21
70374;BME280;57792;49.198;7.890;2022-09-03T03:39:30;98339.34;;;15.34;55.81
70374;BME280;57792;49.198;7.890;2022-09-03T03:40:30;98343.34;;;15.41;55.77
70374;BME280;57792;49.198;7.890;2022-09-03T03:41:33;98347.34;;;15.49;55.45
70374;BME280;57792;49.198;7.890;2022-09-03T03:42:33;98346.09;;;15.54;55.23
70374;BME280;57792;49.198;7.890;2022-09-03T03:43:34;98341.53;;;15.55;55.40
70374;BME280;57792;49.198;7.890;2022-09-03T03:44:34;98348.31;;;15.48;55.78
70374;BME280;57792;49.198;7.890;2022-09-03T03:45:34;98347.34;;;15.49;55.83
70374;BME280;57792;49.198;7.890;2022-09-03T03:46:39;98355.31;;;15.50;56.33
70374;BME280;57792;49.198;7.890;2022-09-03T03:47:40;98348.00;;;15.52;55.47
70374;BME280;57792;49.198;7.890;2022-09-03T03:48:40;98354.00;;;15.56;55.82
70374;BME280;57792;49.198;7.890;2022-09-03T03:49:42;98355.97;;;15.54;55.88
70374;BME280;57792;49.198;7.890;2022-09-03T03:50:42;98362.84;;;15.58;55.68
70374;BME280;57792;49.198;7.890;2022-09-03T03:51:42;98345.84;;;15.57;56.48
70374;BME280;57792;49.198;7.890;2022-09-03T03:52:43;98344.97;;;15.44;56.76
70374;BME280;57792;49.198;7.890;2022-09-03T03:53:43;98353.34;;;15.39;56.83
70374;BME280;57792;49.198;7.890;2022-09-03T03:54:44;98353.44;;;15.38;57.05
70374;BME280;57792;49.198;7.890;2022-09-03T03:56:05;98352.56;;;15.37;58.14
70374;BME280;57792;49.198;7.890;2022-09-03T03:57:06;98352.06;;;15.45;56.77
70374;BME280;57792;49.198;7.890;2022-09-03T03:58:06;98349.94;;;15.50;56.38
70374;BME280;57792;49.198;7.890;2022-09-03T03:59:07;98351.47;;;15.54;56.13
70374;BME280;57792;49.198;7.890;2022-09-03T04:00:08;98350.56;;;15.41;56.75
70374;BME280;57792;49.198;7.890;2022-09-03T04:01:10;98349.59;;;15.42;57.00
70374;BME280;57792;49.198;7.890;2022-09-03T04:02:12;98358.81;;;15.38;56.94
70374;BME280;57792;49.198;7.890;2022-09-03T04:03:12;98356.13;;;15.38;56.47
70374;BME280;57792;49.198;7.890;2022-09-03T04:04:13;98363.22;;;15.39;56.38
70374;BME280;57792;49.198;7.890;2022-09-03T04:05:13;98363.63;;;15.33;56.88
70374;BME280;57792;49.198;7.890;2022-09-03T04:06:18;98366.91;;;15.24;57.51
70374;BME280;57792;49.198;7.890;2022-09-03T04:07:18;98360.28;;;15.29;56.75
70374;BME280;57792;49.198;7.890;2022-09-03T04:08:18;98366.88;;;15.38;56.20
70374;BME280;57792;49.198;7.890;2022-09-03T04:09:19;98359.66;;;15.38;56.43
70374;BME280;57792;49.198;7.890;2022-09-03T04:10:20;98357.66;;;15.42;56.41
70374;BME280;57792;49.198;7.890;2022-09-03T04:11:22;98357.75;;;15.40;56.78
70374;BME280;57792;49.198;7.890;2022-09-03T04:12:23;98363.88;;;15.42;56.33
70374;BME280;57792;49.198;7.890;2022-09-03T04:13:23;98356.28;;;15.49;56.06
70374;BME280;57792;49.198;7.890;2022-09-03T04:14:24;98358.75;;;15.52;56.61
70374;BME280;57792;49.198;7.890;2022-09-03T04:15:25;98357.25;;;15.48;56.31
70374;BME280;57792;49.198;7.890;2022-09-03T04:16:27;98364.34;;;15.49;56.69
70374;BME280;57792;49.198;7.890;2022-09-03T04:17:27;98360.22;;;15.43;56.66
70374;BME280;57792;49.198;7.890;2022-09-03T04:18:29;98362.72;;;15.46;56.49
70374;BME280;57792;49.198;7.890;2022-09-03T04:19:30;98369.25;;;15.42;56.67
70374;BME280;57792;49.198;7.890;2022-09-03T04:20:30;98361.97;;;15.44;56.41
70374;BME280;57792;49.198;7.890;2022-09-03T04:21:30;98363.38;;;15.50;56.15
70374;BME280;57792;49.198;7.890;2022-09-03T04:22:31;98356.19;;;15.51;56.12
70374;BME280;57792;49.198;7.890;2022-09-03T04:23:32;98360.69;;;15.50;56.29
70374;BME280;57792;49.198;7.890;2022-09-03T04:24:33;98367.59;;;15.54;56.16
70374;BME280;57792;49.198;7.890;2022-09-03T04:25:34;98372.41;;;15.49;56.72
70374;BME280;57792;49.198;7.890;2022-09-03T04:26:36;98375.38;;;15.44;56.59
70374;BME280;57792;49.198;7.890;2022-09-03T04:27:36;98376.81;;;15.50;56.81
70374;BME280;57792;49.198;7.890;2022-09-03T04:28:37;98378.31;;;15.54;56.35
70374;BME280;57792;49.198;7.890;2022-09-03T04:29:38;98381.63;;;15.58;56.24
70374;BME280;57792;49.198;7.890;2022-09-03T04:30:38;98384.66;;;15.53;56.50
70374;BME280;57792;49.198;7.890;2022-09-03T04:31:39;98373.34;;;15.48;56.36
70374;BME280;57792;49.198;7.890;2022-09-03T04:32:59;98375.81;;;15.24;57.28
70374;BME280;57792;49.198;7.890;2022-09-03T04:34:00;98381.25;;;15.37;56.96
70374;BME280;57792;49.198;7.890;2022-09-03T04:35:01;98382.47;;;15.45;56.77
70374;BME280;57792;49.198;7.890;2022-09-03T04:36:07;98379.78;;;15.45;57.01
70374;BME280;57792;49.198;7.890;2022-09-03T04:37:07;98378.56;;;15.37;57.25
70374;BME280;57792;49.198;7.890;2022-09-03T04:38:09;98387.97;;;15.44;56.46
70374;BME280;57792;49.198;7.890;2022-09-03T04:39:10;98386.44;;;15.40;56.93
70374;BME280;57792;49.198;7.890;2022-09-03T04:40:10;98392.88;;;15.37;56.94
70374;BME280;57792;49.198;7.890;2022-09-03T04:41:13;98392.81;;;15.25;57.44
70374;BME280;57792;49.198;7.890;2022-09-03T04:42:14;98391.66;;;15.29;57.31
70374;BME280;57792;49.198;7.890;2022-09-03T04:43:15;98391.81;;;15.13;58.14
70374;BME280;57792;49.198;7.890;2022-09-03T04:44:15;98394.81;;;14.94;58.70
70374;BME280;57792;49.198;7.890;2022-09-03T04:45:15;98399.59;;;15.03;57.94
70374;BME280;57792;49.198;7.890;2022-09-03T04:46:18;98399.66;;;15.16;57.85
70374;BME280;57792;49.198;7.890;2022-09-03T04:47:19;98406.03;;;15.28;57.17
70374;BME280;57792;49.198;7.890;2022-09-03T04:48:20;98394.84;;;15.21;57.78
70374;BME280;57792;49.198;7.890;2022-09-03T04:49:20;98390.13;;;15.25;57.92
70374;BME280;57792;49.198;7.890;2022-09-03T04:50:20;98404.78;;;15.33;57.79
70374;BME280;57792;49.198;7.890;2022-09-03T04:51:27;98393.38;;;15.30;60.58
70374;BME280;57792;49.198;7.890;2022-09-03T04:52:28;98399.41;;;15.33;58.56
70374;BME280;57792;49.198;7.890;2022-09-03T04:53:35;98392.81;;;15.25;59.31
70374;BME280;57792;49.198;7.890;2022-09-03T04:54:36;98394.84;;;15.21;58.64
70374;BME280;57792;49.198;7.890;2022-09-03T04:55:36;98396.56;;;15.22;58.91
70374;BME280;57792;49.198;7.890;2022-09-03T04:56:38;98402.50;;;15.27;58.35
70374;BME280;57792;49.198;7.890;2022-09-03T04:57:38;98398.94;;;15.27;58.52
70374;BME280;57792;49.198;7.890;2022-09-03T04:58:42;98389.25;;;15.24;59.11
70374;BME280;57792;49.198;7.890;2022-09-03T04:59:43;98408.41;;;15.32;59.04
70374;BME280;57792;49.198;7.890;2022-09-03T05:00:43;98412.47;;;15.25;59.55
70374;BME280;57792;49.198;7.890;2022-09-03T05:01:44;98416.13;;;15.24;59.53
70374;BME280;57792;49.198;7.890;2022-09-03T05:02:45;98407.28;;;15.22;59.77
70374;BME280;57792;49.198;7.890;2022-09-03T05:03:48;98413.13;;;15.29;59.46
70374;BME280;57792;49.198;7.890;2022-09-03T05:04:51;98415.25;;;15.24;60.54
70374;BME280;57792;49.198;7.890;2022-09-03T05:05:54;98407.63;;;15.18;63.10
70374;BME280;57792;49.198;7.890;2022-09-03T05:06:55;98406.09;;;15.13;61.65
70374;BME280;57792;49.198;7.890;2022-09-03T05:07:59;98419.13;;;15.20;62.59
70374;BME280;57792;49.198;7.890;2022-09-03T05:09:03;98411.38;;;15.15;61.57
70374;BME280;57792;49.198;7.890;2022-09-03T05:10:08;98418.66;;;14.99;65.07
70374;BME280;57792;49.198;7.890;2022-09-03T05:11:12;98409.19;;;14.93;63.28
70374;BME280;57792;49.198;7.890;2022-09-03T05:12:12;98410.22;;;15.05;62.91
70374;BME280;57792;49.198;7.890;2022-09-03T05:13:13;98408.91;;;14.98;64.15
70374;BME280;57792;49.198;7.890;2022-09-03T05:14:13;98410.28;;;14.76;65.57
70374;BME280;57792;49.198;7.890;2022-09-03T05:15:13;98406.91;;;14.73;66.58
70374;BME280;57792;49.198;7.890;2022-09-03T05:16:15;98418.03;;;14.81;65.38
70374;BME280;57792;49.198;7.890;2022-09-03T05:17:16;98417.94;;;14.68;65.40
70374;BME280;57792;49.198;7.890;2022-09-03T05:18:16;98413.72;;;14.64;66.20
70374;BME280;57792;49.198;7.890;2022-09-03T05:19:17;98410.56;;;14.72;65.81
70374;BME280;57792;49.198;7.890;2022-09-03T05:20:18;98408.75;;;14.72;65.70
70374;BME280;57792;49.198;7.890;2022-09-03T05:21:18;98412.75;;;14.79;65.31
70374;BME280;57792;49.198;7.890;2022-09-03T05:22:19;98419.47;;;14.87;66.22
70374;BME280;57792;49.198;7.890;2022-09-03T05:23:22;98401.38;;;14.76;66.07
70374;BME280;57792;49.198;7.890;2022-09-03T05:24:23;98417.94;;;14.83;66.16
70374;BME280;57792;49.198;7.890;2022-09-03T05:25:24;98424.94;;;14.85;67.13
70374;BME280;57792;49.198;7.890;2022-09-03T05:26:26;98411.13;;;14.77;67.26
70374;BME280;57792;49.198;7.890;2022-09-03T05:27:27;98412.09;;;14.76;66.78
70374;BME280;57792;49.198;7.890;2022-09-03T05:28:29;98411.53;;;14.85;66.54
70374;BME280;57792;49.198;7.890;2022-09-03T05:29:30;98410.75;;;14.83;66.71
70374;BME280;57792;49.198;7.890;2022-09-03T05:30:30;98411.81;;;14.81;67.43
70374;BME280;57792;49.198;7.890;2022-09-03T05:31:30;98408.25;;;14.80;67.10
70374;BME280;57792;49.198;7.890;2022-09-03T05:32:31;98420.53;;;14.84;66.55
70374;BME280;57792;49.198;7.890;2022-09-03T05:33:39;98418.81;;;14.83;69.42
70374;BME280;57792;49.198;7.890;2022-09-03T05:34:41;98407.41;;;14.79;67.54
70374;BME280;57792;49.198;7.890;2022-09-03T05:35:41;98404.44;;;14.84;67.09
70374;BME280;57792;49.198;7.890;2022-09-03T05:36:42;98409.13;;;14.81;66.95
70374;BME280;57792;49.198;7.890;2022-09-03T05:37:42;98414.31;;;14.84;67.13
70374;BME280;57792;49.198;7.890;2022-09-03T05:38:43;98414.41;;;14.82;66.97
70374;BME280;57792;49.198;7.890;2022-09-03T05:39:43;98416.41;;;14.78;67.84
70374;BME280;57792;49.198;7.890;2022-09-03T05:40:44;98416.31;;;14.80;67.47
70374;BME280;57792;49.198;7.890;2022-09-03T05:41:44;98408.25;;;14.80;67.71
70374;BME280;57792;49.198;7.890;2022-09-03T05:42:45;98413.06;;;14.75;68.04
70374;BME280;57792;49.198;7.890;2022-09-03T05:43:50;98415.44;;;14.79;67.82
70374;BME280;57792;49.198;7.890;2022-09-03T05:44:52;98414.88;;;14.74;67.43
70374;BME280;57792;49.198;7.890;2022-09-03T05:46:07;98415.44;;;14.65;68.92
70374;BME280;57792;49.198;7.890;2022-09-03T05:47:08;98418.28;;;14.62;68.82
70374;BME280;57792;49.198;7.890;2022-09-03T05:48:08;98411.88;;;14.51;69.31
70374;BME280;57792;49.198;7.890;2022-09-03T05:49:09;98412.25;;;14.44;69.98
70374;BME280;57792;49.198;7.890;2022-09-03T05:50:10;98403.16;;;14.47;69.69
70374;BME280;57792;49.198;7.890;2022-09-03T05:51:13;98397.69;;;14.20;71.35
70374;BME280;57792;49.198;7.890;2022-09-03T05:52:15;98401.69;;;14.13;70.47
70374;BME280;57792;49.198;7.890;2022-09-03T05:53:15;98399.22;;;14.10;70.76
70374;BME280;57792;49.198;7.890;2022-09-03T05:54:17;98384.56;;;14.16;70.52
70374;BME280;57792;49.198;7.890;2022-09-03T05:55:17;98397.88;;;14.31;70.07
70374;BME280;57792;49.198;7.890;2022-09-03T05:56:19;98398.94;;;14.29;70.75
70374;BME280;57792;49.198;7.890;2022-09-03T05:57:20;98390.22;;;14.39;69.31
70374;BME280;57792;49.198;7.890;2022-09-03T05:58:21;98388.03;;;14.46;69.08
70374;BME280;57792;49.198;7.890;2022-09-03T05:59:21;98391.28;;;14.51;69.00
70374;BME280;57792;49.198;7.890;2022-09-03T06:00:22;98385.94;;;14.51;69.01
70374;BME280;57792;49.198;7.890;2022-09-03T06:01:25;98391.38;;;14.50;69.75
70374;BME280;57792;49.198;7.890;2022-09-03T06:02:26;98395.88;;;14.49;69.54
70374;BME280;57792;49.198;7.890;2022-09-03T06:03:26;98394.16;;;14.34;70.31
70374;BME280;57792;49.198;7.890;2022-09-03T06:04:26;98398.38;;;14.38;70.34
70374;BME280;57792;49.198;7.890;2022-09-03T06:05:27;98398.56;;;14.49;69.72
70374;BME280;57792;49.198;7.890;2022-09-03T06:06:29;98404.50;;;14.54;69.55
70374;BME280;57792;49.198;7.890;2022-09-03T06:07:30;98405.16;;;14.58;69.48
70374;BME280;57792;49.198;7.890;2022-09-03T06:08:34;98406.91;;;14.44;70.58
70374;BME280;57792;49.198;7.890;2022-09-03T06:09:34;98414.84;;;14.46;70.58
70374;BME280;57792;49.198;7.890;2022-09-03T06:10:34;98409.19;;;14.36;70.96
70374;BME280;57792;49.198;7.890;2022-09-03T06:11:36;98414.25;;;14.27;72.18
70374;BME280;57792;49.198;7.890;2022-09-03T06:12:37;98418.75;;;14.12;72.49
70374;BME280;57792;49.198;7.890;2022-09-03T06:13:37;98411.34;;;14.01;74.26
70374;BME280;57792;49.198;7.890;2022-09-03T06:14:38;98415.06;;;13.99;72.75
70374;BME280;57792;49.198;7.890;2022-09-03T06:15:38;98416.25;;;14.09;72.27
70374;BME280;57792;49.198;7.890;2022-09-03T06:16:44;98423.06;;;14.15;72.55
70374;BME280;57792;49.198;7.890;2022-09-03T06:17:45;98425.38;;;14.21;71.65
70374;BME280;57792;49.198;7.890;2022-09-03T06:18:45;98428.25;;;14.18;72.10
70374;BME280;57792;49.198;7.890;2022-09-03T06:19:46;98425.06;;;14.11;72.50
70374;BME280;57792;49.198;7.890;2022-09-03T06:20:56;98436.56;;;14.13;72.11
70374;BME280;57792;49.198;7.890;2022-09-03T06:21:56;98432.56;;;14.20;71.33
70374;BME280;57792;49.198;7.890;2022-09-03T06:22:57;98431.19;;;14.13;72.20
70374;BME280;57792;49.198;7.890;2022-09-03T06:23:58;98431.97;;;14.15;71.96
70374;BME280;57792;49.198;7.890;2022-09-03T06:24:58;98446.63;;;14.24;71.02
70374;BME280;57792;49.198;7.890;2022-09-03T06:26:04;98445.38;;;14.15;72.40